Time;durP1;ratioP1;P1;durP2;ratioP2;P2;SDS_P1;SDS_P2;PMS_P1;PMS_P2;Temp;Humidity;BMP_temperature;BMP_pressure;BME280_temperature;BME280_humidity;BME280_pressure;Samples;Min_cycle;Max_cycle;Signal;HPM_P1;HPM_P2
2021/10/01 00:00:17;;;;;;;;;;;;;;;21.37;58.31;100439.53;2075311;28;20510;-39
2021/10/01 00:01:18;;;;;;;;;;;;;;;21.37;58.44;100447.75;2067893;28;19917;-39
2021/10/01 00:02:18;;;;;;;;;;;;;;;21.38;58.40;100443.97;2068646;28;20267;-38
2021/10/01 00:03:18;;;;;;;;;;;;;;;21.37;58.51;100442.25;2068408;28;19967;-39
2021/10/01 00:04:19;;;;;;;;;;;;;;;21.37;58.19;100442.25;2065122;28;19961;-38
2021/10/01 00:05:21;;;;;;;;;;;;;;;21.37;58.48;100435.91;2066774;28;19917;-38
2021/10/01 00:06:21;;;;;;;;;;;;;;;21.37;58.34;100435.91;2072803;28;19917;-38
2021/10/01 00:07:21;;;;;;;;;;;;;;;21.36;58.52;100435.06;2073308;28;19921;-40
2021/10/01 00:08:22;;;;;;;;;;;;;;;21.37;58.35;100435.91;2077165;28;20299;-40
2021/10/01 00:09:22;;;;;;;;;;;;;;;21.37;58.52;100436.78;2074838;28;20012;-41
2021/10/01 00:10:23;;;;;;;;;;;;;;;21.36;58.40;100435.06;2070298;28;19921;-40
2021/10/01 00:11:23;;;;;;;;;;;;;;;21.37;58.49;100428.56;2069021;28;19917;-40
2021/10/01 00:12:23;;;;;;;;;;;;;;;21.37;58.35;100431.28;2072197;28;20767;-40
2021/10/01 00:13:24;;;;;;;;;;;;;;;21.37;58.51;100434.03;2076168;28;19909;-40
2021/10/01 00:14:26;;;;;;;;;;;;;;;21.36;58.52;100429.59;2072912;28;20284;-40
2021/10/01 00:15:27;;;;;;;;;;;;;;;21.37;58.38;100427.69;2077454;28;19927;-40
2021/10/01 00:16:27;;;;;;;;;;;;;;;21.36;58.50;100426.84;2076833;28;20358;-40
2021/10/01 00:17:27;;;;;;;;;;;;;;;21.36;58.38;100424.09;2076847;28;19913;-41
2021/10/01 00:18:29;;;;;;;;;;;;;;;21.36;58.43;100429.59;2073712;28;19921;-40
2021/10/01 00:19:33;;;;;;;;;;;;;;;21.36;58.45;100428.69;2075178;28;19912;-40
2021/10/01 00:20:34;;;;;;;;;;;;;;;21.36;58.52;100423.22;2077399;28;19939;-40
2021/10/01 00:21:34;;;;;;;;;;;;;;;21.35;58.56;100422.34;2072704;28;19917;-41
2021/10/01 00:22:34;;;;;;;;;;;;;;;21.35;58.41;100425.09;2073737;28;19917;-40
2021/10/01 00:23:35;;;;;;;;;;;;;;;21.35;58.37;100425.09;2075041;28;19923;-40
2021/10/01 00:24:35;;;;;;;;;;;;;;;21.35;58.42;100416.03;2074109;28;19920;-40
2021/10/01 00:25:35;;;;;;;;;;;;;;;21.35;58.44;100432.47;2078147;28;19948;-40
2021/10/01 00:26:36;;;;;;;;;;;;;;;21.35;58.75;100422.34;2075597;28;19938;-41
2021/10/01 00:27:36;;;;;;;;;;;;;;;21.34;58.40;100423.38;2075205;28;20224;-41
2021/10/01 00:28:37;;;;;;;;;;;;;;;21.35;58.60;100424.25;2077163;28;19908;-41
2021/10/01 00:29:37;;;;;;;;;;;;;;;21.34;58.32;100423.38;2074735;28;20939;-41
2021/10/01 00:30:37;;;;;;;;;;;;;;;21.35;58.37;100421.50;2077264;28;19966;-40
2021/10/01 00:31:39;;;;;;;;;;;;;;;21.35;58.36;100413.28;2067546;28;19943;-40
2021/10/01 00:32:39;;;;;;;;;;;;;;;21.35;58.56;100410.53;2061256;28;19918;-40
2021/10/01 00:33:40;;;;;;;;;;;;;;;21.33;58.37;100407.94;2068608;28;19915;-40
2021/10/01 00:34:40;;;;;;;;;;;;;;;21.34;58.40;100409.69;2071157;28;20262;-41
2021/10/01 00:35:40;;;;;;;;;;;;;;;21.34;58.62;100415.16;2065209;28;19917;-40
2021/10/01 00:36:41;;;;;;;;;;;;;;;21.34;58.56;100406.94;2074911;28;19960;-40
2021/10/01 00:37:41;;;;;;;;;;;;;;;21.34;58.64;100409.69;2069773;28;20020;-41
2021/10/01 00:38:41;;;;;;;;;;;;;;;21.34;58.55;100408.81;2075695;28;20011;-41
2021/10/01 00:39:42;;;;;;;;;;;;;;;21.35;58.36;100405.91;2077125;28;19916;-40
2021/10/01 00:40:42;;;;;;;;;;;;;;;21.34;58.38;100404.19;2072791;28;20303;-40
2021/10/01 00:41:42;;;;;;;;;;;;;;;21.35;58.28;100408.66;2075112;28;20355;-40
2021/10/01 00:42:42;;;;;;;;;;;;;;;21.34;58.55;100409.69;2068568;28;20216;-41
2021/10/01 00:43:43;;;;;;;;;;;;;;;21.34;58.64;100412.41;2077792;28;20245;-42
2021/10/01 00:44:43;;;;;;;;;;;;;;;21.34;58.62;100403.34;2071466;28;19928;-41
2021/10/01 00:45:43;;;;;;;;;;;;;;;21.34;58.52;100409.69;2074627;28;19917;-40
2021/10/01 00:46:44;;;;;;;;;;;;;;;21.34;58.55;100404.19;2076427;28;20729;-41
2021/10/01 00:47:44;;;;;;;;;;;;;;;21.34;58.48;100403.34;2076307;28;19964;-40
2021/10/01 00:48:44;;;;;;;;;;;;;;;21.33;58.43;100405.19;2075715;28;20447;-40
2021/10/01 00:49:45;;;;;;;;;;;;;;;21.35;58.41;100405.06;2068745;28;19967;-40
2021/10/01 00:50:45;;;;;;;;;;;;;;;21.34;58.44;100415.16;2071097;28;20427;-40
2021/10/01 00:51:46;;;;;;;;;;;;;;;21.33;58.64;100407.94;2076908;28;19917;-41
2021/10/01 00:52:48;;;;;;;;;;;;;;;21.34;58.40;100420.66;2075991;28;19924;-41
2021/10/01 00:53:48;;;;;;;;;;;;;;;21.34;58.71;100415.16;2075628;28;19917;-40
2021/10/01 00:54:48;;;;;;;;;;;;;;;21.34;58.25;100411.56;2075567;28;20047;-41
2021/10/01 00:55:49;;;;;;;;;;;;;;;21.34;58.42;100414.31;2074237;28;20308;-40
2021/10/01 00:56:49;;;;;;;;;;;;;;;21.33;58.61;100413.41;2073992;28;19921;-41
2021/10/01 00:57:50;;;;;;;;;;;;;;;21.34;58.54;100415.16;2070982;28;19909;-40
2021/10/01 00:58:50;;;;;;;;;;;;;;;21.32;58.50;100411.72;2072375;28;19921;-41
2021/10/01 00:59:50;;;;;;;;;;;;;;;21.32;58.44;100403.47;2078014;28;20027;-41
2021/10/01 01:01:11;;;;;;;;;;;;;;;21.32;58.63;100400.75;2075142;28;19966;-41
2021/10/01 01:02:11;;;;;;;;;;;;;;;21.33;58.65;100402.44;2070625;28;19913;-40
2021/10/01 01:03:12;;;;;;;;;;;;;;;21.33;58.45;100398.84;2073933;28;20290;-40
2021/10/01 01:04:12;;;;;;;;;;;;;;;21.32;58.62;100400.75;2073296;28;20354;-40
2021/10/01 01:05:12;;;;;;;;;;;;;;;21.32;58.63;100392.53;2076417;28;19991;-40
2021/10/01 01:06:31;;;;;;;;;;;;;;;21.33;58.49;100399.72;2075684;28;19925;-40
2021/10/01 01:07:41;;;;;;;;;;;;;;;21.32;58.44;100395.25;2075668;28;19976;-41
2021/10/01 01:08:47;;;;;;;;;;;;;;;21.32;58.51;100394.41;2075774;28;19948;-40
2021/10/01 01:09:53;;;;;;;;;;;;;;;21.32;58.60;100395.25;2073342;28;19920;-40
2021/10/01 01:10:59;;;;;;;;;;;;;;;21.31;58.52;100378.94;2067230;28;20448;-40
2021/10/01 01:12:02;;;;;;;;;;;;;;;21.31;58.49;100385.31;2057712;28;19918;-41
2021/10/01 01:13:09;;;;;;;;;;;;;;;21.32;58.83;100383.44;2066170;28;20742;-41
2021/10/01 01:14:12;;;;;;;;;;;;;;;21.32;58.48;100381.56;2073154;28;19931;-40
2021/10/01 01:15:42;;;;;;;;;;;;;;;21.32;58.55;100384.28;2064263;28;19970;-40
2021/10/01 01:16:43;;;;;;;;;;;;;;;21.31;58.38;100379.84;2056667;28;20223;-41
2021/10/01 01:18:02;;;;;;;;;;;;;;;21.31;58.39;100377.09;2074215;28;20071;-41
2021/10/01 01:19:07;;;;;;;;;;;;;;;21.32;58.47;100381.56;2069706;28;20529;-41
2021/10/01 01:20:13;;;;;;;;;;;;;;;21.31;58.23;100377.09;2072361;28;19925;-41
2021/10/01 01:21:22;;;;;;;;;;;;;;;21.33;58.46;100382.41;2071203;28;19921;-41
2021/10/01 01:22:41;;;;;;;;;;;;;;;21.31;58.51;100371.63;2075862;28;19939;-41
2021/10/01 01:23:42;;;;;;;;;;;;;;;21.32;58.49;100372.47;2074448;28;20039;-40
2021/10/01 01:24:42;;;;;;;;;;;;;;;21.32;58.54;100372.47;2076063;28;20348;-41
2021/10/01 01:25:54;;;;;;;;;;;;;;;21.30;58.53;100369.88;2074745;28;20511;-41
2021/10/01 01:27:33;;;;;;;;;;;;;;;21.30;58.54;100364.38;2073898;28;20220;-41
2021/10/01 01:28:37;;;;;;;;;;;;;;;21.30;58.51;100364.38;2041497;28;19921;-41
2021/10/01 01:29:58;;;;;;;;;;;;;;;21.30;58.38;100361.66;2037255;28;19949;-41
2021/10/01 01:31:04;;;;;;;;;;;;;;;21.30;58.49;100366.28;2035539;28;19918;-40
2021/10/01 01:32:13;;;;;;;;;;;;;;;21.30;58.57;100360.78;2041725;28;19961;-41
2021/10/01 01:33:16;;;;;;;;;;;;;;;21.30;58.57;100356.16;2045119;28;19926;-40
2021/10/01 01:34:19;;;;;;;;;;;;;;;21.30;58.47;100358.06;2061790;28;20488;-40
2021/10/01 01:35:21;;;;;;;;;;;;;;;21.29;58.37;100359.06;2077506;28;19916;-40
2021/10/01 01:36:22;;;;;;;;;;;;;;;21.29;58.54;100357.19;2075670;28;20215;-40
2021/10/01 01:37:29;;;;;;;;;;;;;;;21.29;58.54;100356.31;2074008;28;19924;-40
2021/10/01 01:38:39;;;;;;;;;;;;;;;21.29;58.77;100356.31;2063680;28;20086;-40
2021/10/01 01:39:40;;;;;;;;;;;;;;;21.29;58.61;100362.69;2069172;28;19924;-40
2021/10/01 01:40:42;;;;;;;;;;;;;;;21.30;58.58;100358.91;2070177;28;19909;-40
2021/10/01 01:41:43;;;;;;;;;;;;;;;21.30;58.57;100355.31;2075455;28;20185;-45
2021/10/01 01:42:45;;;;;;;;;;;;;;;21.29;58.74;100357.19;2066930;28;20031;-40
2021/10/01 01:43:45;;;;;;;;;;;;;;;21.29;58.41;100351.72;2068134;28;19917;-40
2021/10/01 01:44:47;;;;;;;;;;;;;;;21.29;58.59;100353.56;2068465;28;20797;-41
2021/10/01 01:45:47;;;;;;;;;;;;;;;21.28;58.54;100344.50;2071687;28;20180;-41
2021/10/01 01:46:48;;;;;;;;;;;;;;;21.29;58.57;100346.22;2076914;28;19917;-40
2021/10/01 01:47:49;;;;;;;;;;;;;;;21.28;58.53;100341.75;2074681;28;19929;-41
2021/10/01 01:48:50;;;;;;;;;;;;;;;21.28;58.45;100336.25;2074979;28;19925;-40
2021/10/01 01:49:51;;;;;;;;;;;;;;;21.28;58.52;100341.75;2077085;28;19942;-41
2021/10/01 01:50:52;;;;;;;;;;;;;;;21.29;58.70;100335.25;2073334;28;20473;-40
2021/10/01 01:51:53;;;;;;;;;;;;;;;21.28;58.53;100339.00;2071945;28;20029;-40
2021/10/01 01:52:55;;;;;;;;;;;;;;;21.28;58.49;100333.53;2072531;28;19924;-41
2021/10/01 01:53:56;;;;;;;;;;;;;;;21.29;58.37;100332.53;2069162;28;20696;-41
2021/10/01 01:54:57;;;;;;;;;;;;;;;21.27;58.55;100326.31;2073215;28;19917;-40
2021/10/01 01:55:58;;;;;;;;;;;;;;;21.28;58.58;100328.03;2072121;28;19924;-41
2021/10/01 01:56:59;;;;;;;;;;;;;;;21.27;58.41;100320.84;2074802;28;19924;-41
2021/10/01 01:57:59;;;;;;;;;;;;;;;21.28;58.71;100322.56;2076180;28;19921;-40
2021/10/01 01:59:00;;;;;;;;;;;;;;;21.27;58.54;100315.38;2073942;28;19910;-40
2021/10/01 02:00:01;;;;;;;;;;;;;;;21.26;58.49;100324.59;2076976;28;20007;-40
2021/10/01 02:01:02;;;;;;;;;;;;;;;21.27;58.61;100312.63;2075619;28;19924;-40
2021/10/01 02:02:03;;;;;;;;;;;;;;;21.27;58.49;100314.50;2076519;28;19916;-40
2021/10/01 02:03:04;;;;;;;;;;;;;;;21.27;58.62;100309.88;2077064;28;19932;-40
2021/10/01 02:04:06;;;;;;;;;;;;;;;21.27;58.80;100314.50;2074624;28;19959;-41
2021/10/01 02:05:07;;;;;;;;;;;;;;;21.27;58.76;100320.00;2074591;28;20683;-41
2021/10/01 02:06:07;;;;;;;;;;;;;;;21.26;58.46;100310.88;2064695;28;19925;-41
2021/10/01 02:07:08;;;;;;;;;;;;;;;21.27;58.55;100309.88;2066891;28;20278;-40
2021/10/01 02:08:09;;;;;;;;;;;;;;;21.26;58.65;100313.63;2073483;28;19917;-40
2021/10/01 02:09:11;;;;;;;;;;;;;;;21.27;58.64;100320.84;2075307;28;20268;-41
2021/10/01 02:10:12;;;;;;;;;;;;;;;21.26;58.55;100313.63;2066397;28;19951;-41
2021/10/01 02:11:14;;;;;;;;;;;;;;;21.27;58.72;100317.25;2066858;28;19917;-41
2021/10/01 02:12:15;;;;;;;;;;;;;;;21.26;58.60;100316.38;2069590;28;20521;-41
2021/10/01 02:13:16;;;;;;;;;;;;;;;21.26;58.53;100313.63;2072341;28;19924;-40
2021/10/01 02:14:20;;;;;;;;;;;;;;;21.25;58.56;100306.44;2072481;28;20060;-41
2021/10/01 02:15:21;;;;;;;;;;;;;;;21.26;58.65;100302.66;2076387;28;19987;-40
2021/10/01 02:16:22;;;;;;;;;;;;;;;21.25;58.66;100300.94;2073080;28;19924;-41
2021/10/01 02:17:23;;;;;;;;;;;;;;;21.26;58.63;100301.81;2073756;28;19936;-41
2021/10/01 02:18:25;;;;;;;;;;;;;;;21.24;58.64;100299.25;2076446;28;19915;-40
2021/10/01 02:19:30;;;;;;;;;;;;;;;21.25;58.57;100300.94;2072519;28;19917;-40
2021/10/01 02:20:31;;;;;;;;;;;;;;;21.25;58.69;100295.47;2072681;28;20004;-41
2021/10/01 02:21:33;;;;;;;;;;;;;;;21.25;58.85;100300.09;2071903;28;19921;-42
2021/10/01 02:22:33;;;;;;;;;;;;;;;21.25;58.74;100295.47;2074497;28;19921;-41
2021/10/01 02:23:34;;;;;;;;;;;;;;;21.24;58.57;100293.75;2074100;28;20775;-41
2021/10/01 02:24:34;;;;;;;;;;;;;;;21.25;58.48;100297.34;2072908;28;19964;-41
2021/10/01 02:27:08;;;;;;;;;;;;;;;21.25;58.49;100295.47;2074044;28;19921;-40
2021/10/01 02:28:12;;;;;;;;;;;;;;;21.24;58.58;100291.00;2076448;28;20629;-40
2021/10/01 02:29:12;;;;;;;;;;;;;;;21.24;58.55;100299.25;2074856;28;19931;-41
2021/10/01 02:30:14;;;;;;;;;;;;;;;21.24;58.39;100293.75;2075185;28;19924;-40
2021/10/01 02:31:21;;;;;;;;;;;;;;;21.24;58.57;100288.28;2073076;28;19917;-41
2021/10/01 02:32:40;;;;;;;;;;;;;;;21.25;58.63;100295.47;2076413;28;19916;-40
2021/10/01 02:33:42;;;;;;;;;;;;;;;21.24;58.70;100288.28;2075176;28;19939;-41
2021/10/01 02:34:44;;;;;;;;;;;;;;;21.24;58.47;100292.88;2070843;28;19917;-40
2021/10/01 02:35:44;;;;;;;;;;;;;;;21.24;58.81;100288.28;2073220;28;19913;-41
2021/10/01 02:36:44;;;;;;;;;;;;;;;21.24;58.52;100292.88;2075734;28;19942;-40
2021/10/01 02:37:45;;;;;;;;;;;;;;;21.24;58.75;100293.75;2073595;28;19943;-41
2021/10/01 02:38:46;;;;;;;;;;;;;;;21.24;58.42;100287.38;2075827;28;19920;-40
2021/10/01 02:39:48;;;;;;;;;;;;;;;21.23;58.44;100292.00;2075817;28;19916;-41
2021/10/01 02:40:49;;;;;;;;;;;;;;;21.24;58.45;100296.50;2067485;28;20414;-40
2021/10/01 02:41:49;;;;;;;;;;;;;;;21.24;58.56;100295.63;2067950;28;19932;-40
2021/10/01 02:42:50;;;;;;;;;;;;;;;21.23;58.57;100297.50;2072760;28;20000;-40
2021/10/01 02:43:50;;;;;;;;;;;;;;;21.24;58.51;100299.25;2075731;28;20465;-41
2021/10/01 02:44:51;;;;;;;;;;;;;;;21.23;58.52;100294.75;2071549;28;20354;-41
2021/10/01 02:45:52;;;;;;;;;;;;;;;21.23;58.39;100288.41;2070176;28;19932;-41
2021/10/01 02:46:52;;;;;;;;;;;;;;;21.24;58.66;100298.34;2077156;28;19909;-40
2021/10/01 02:47:52;;;;;;;;;;;;;;;21.23;58.40;100292.00;2074679;28;19936;-41
2021/10/01 02:48:53;;;;;;;;;;;;;;;21.23;58.71;100285.69;2076881;28;20031;-40
2021/10/01 02:49:53;;;;;;;;;;;;;;;21.22;58.64;100293.03;2066309;28;20437;-40
2021/10/01 02:50:59;;;;;;;;;;;;;;;21.23;58.63;100293.91;2067715;28;19921;-41
2021/10/01 02:52:07;;;;;;;;;;;;;;;21.23;58.64;100291.16;2071347;28;19921;-40
2021/10/01 02:53:14;;;;;;;;;;;;;;;21.23;58.73;100292.00;2066275;28;20714;-40
2021/10/01 02:54:16;;;;;;;;;;;;;;;21.22;58.45;100284.81;2066997;28;19917;-40
2021/10/01 02:55:20;;;;;;;;;;;;;;;21.22;58.57;100284.81;2076319;28;20320;-41
2021/10/01 02:56:23;;;;;;;;;;;;;;;21.22;58.80;100295.78;2077503;28;20224;-40
2021/10/01 02:57:28;;;;;;;;;;;;;;;21.23;58.61;100291.16;2066202;28;19923;-41
2021/10/01 02:58:34;;;;;;;;;;;;;;;21.23;58.52;100291.16;2064573;28;19917;-40
2021/10/01 02:59:38;;;;;;;;;;;;;;;21.22;58.52;100290.31;2069090;28;20640;-40
2021/10/01 03:00:38;;;;;;;;;;;;;;;21.22;58.72;100301.28;2072598;28;19963;-45
2021/10/01 03:01:40;;;;;;;;;;;;;;;21.23;58.41;100291.16;2078286;28;20457;-41
2021/10/01 03:02:42;;;;;;;;;;;;;;;21.23;58.42;100297.50;2066253;28;19913;-40
2021/10/01 03:03:44;;;;;;;;;;;;;;;21.22;58.56;100298.53;2065975;28;19914;-40
2021/10/01 03:04:46;;;;;;;;;;;;;;;21.22;58.66;100298.53;2060772;28;19940;-40
2021/10/01 03:05:47;;;;;;;;;;;;;;;21.21;58.56;100294.03;2063925;28;20547;-40
2021/10/01 03:06:48;;;;;;;;;;;;;;;21.21;58.60;100294.03;2067138;28;20190;-41
2021/10/01 03:07:49;;;;;;;;;;;;;;;21.23;58.57;100291.16;2075586;28;20383;-40
2021/10/01 03:08:51;;;;;;;;;;;;;;;21.22;58.34;100283.97;2073384;28;20259;-41
2021/10/01 03:09:52;;;;;;;;;;;;;;;21.21;58.70;100283.09;2075000;28;20225;-41
2021/10/01 03:10:54;;;;;;;;;;;;;;;21.21;58.40;100283.09;2070657;28;19917;-40
2021/10/01 03:11:56;;;;;;;;;;;;;;;21.21;58.65;100277.59;2069780;28;19925;-41
2021/10/01 03:12:56;;;;;;;;;;;;;;;21.21;58.54;100274.84;2072610;28;20079;-40
2021/10/01 03:13:58;;;;;;;;;;;;;;;21.20;58.75;100275.91;2075689;28;19923;-41
2021/10/01 03:14:59;;;;;;;;;;;;;;;21.21;58.48;100277.59;2076148;28;19965;-40
2021/10/01 03:15:59;;;;;;;;;;;;;;;21.19;58.53;100283.25;2075357;28;20019;-40
2021/10/01 03:17:00;;;;;;;;;;;;;;;21.21;58.44;100277.59;2075124;28;19909;-40
2021/10/01 03:18:01;;;;;;;;;;;;;;;21.20;58.70;100270.41;2075327;28;19921;-40
2021/10/01 03:19:02;;;;;;;;;;;;;;;21.19;58.67;100277.78;2074484;28;19912;-40
2021/10/01 03:20:03;;;;;;;;;;;;;;;21.19;58.51;100269.56;2075133;28;19917;-40
2021/10/01 03:21:04;;;;;;;;;;;;;;;21.20;58.43;100275.91;2076198;28;19925;-41
2021/10/01 03:22:05;;;;;;;;;;;;;;;21.20;58.70;100275.91;2076600;28;19915;-41
2021/10/01 03:23:07;;;;;;;;;;;;;;;21.19;58.47;100275.03;2065753;28;19933;-41
2021/10/01 03:24:08;;;;;;;;;;;;;;;21.19;58.58;100275.03;2057962;28;20149;-40
2021/10/01 03:25:10;;;;;;;;;;;;;;;21.19;58.67;100269.56;2070978;28;20255;-40
2021/10/01 03:26:11;;;;;;;;;;;;;;;21.20;58.63;100270.41;2074771;28;19920;-41
2021/10/01 03:27:11;;;;;;;;;;;;;;;21.20;58.39;100271.25;2074643;28;19916;-41
2021/10/01 03:28:12;;;;;;;;;;;;;;;21.20;58.62;100275.91;2072885;28;19917;-41
2021/10/01 03:29:13;;;;;;;;;;;;;;;21.19;58.62;100268.66;2073703;28;19921;-40
2021/10/01 03:30:13;;;;;;;;;;;;;;;21.19;58.51;100263.19;2073905;28;19917;-40
2021/10/01 03:31:14;;;;;;;;;;;;;;;21.19;58.54;100260.44;2068585;28;20003;-41
2021/10/01 03:32:20;;;;;;;;;;;;;;;21.19;58.53;100263.19;2063649;28;19917;-40
2021/10/01 03:33:27;;;;;;;;;;;;;;;21.19;58.41;100260.44;2068932;28;20428;-40
2021/10/01 03:34:28;;;;;;;;;;;;;;;21.19;58.43;100263.19;2067512;28;19910;-41
2021/10/01 03:35:30;;;;;;;;;;;;;;;21.18;58.72;100261.47;2072583;28;19916;-40
2021/10/01 03:36:30;;;;;;;;;;;;;;;21.18;58.77;100262.34;2071512;28;19932;-40
2021/10/01 03:37:31;;;;;;;;;;;;;;;21.18;58.48;100261.47;2065402;28;20295;-40
2021/10/01 03:38:31;;;;;;;;;;;;;;;21.18;58.57;100256.00;2068990;28;20370;-41
2021/10/01 03:39:32;;;;;;;;;;;;;;;21.18;58.36;100266.97;2066727;28;19909;-40
2021/10/01 03:40:32;;;;;;;;;;;;;;;21.17;58.71;100252.41;2060997;28;20032;-40
2021/10/01 03:41:33;;;;;;;;;;;;;;;21.18;58.49;100253.25;2060087;28;19917;-41
2021/10/01 03:42:34;;;;;;;;;;;;;;;21.17;58.40;100243.31;2076728;28;20445;-41
2021/10/01 03:43:34;;;;;;;;;;;;;;;21.17;58.70;100237.84;2075108;28;20251;-40
2021/10/01 03:44:35;;;;;;;;;;;;;;;21.17;58.39;100237.84;2066032;28;19913;-41
2021/10/01 03:45:35;;;;;;;;;;;;;;;21.16;58.49;100233.38;2057914;28;19965;-40
2021/10/01 03:46:35;;;;;;;;;;;;;;;21.18;58.38;100239.56;2076440;28;19908;-41
2021/10/01 03:47:35;;;;;;;;;;;;;;;21.16;58.81;100230.63;2073439;28;20690;-40
2021/10/01 03:48:36;;;;;;;;;;;;;;;21.17;58.40;100232.38;2075949;28;19940;-41
2021/10/01 03:49:36;;;;;;;;;;;;;;;21.16;58.41;100234.22;2076778;28;19917;-40
2021/10/01 03:50:37;;;;;;;;;;;;;;;21.17;58.63;100235.09;2074643;28;20102;-40
2021/10/01 03:51:37;;;;;;;;;;;;;;;21.17;58.45;100237.84;2075734;28;19909;-40
2021/10/01 03:52:39;;;;;;;;;;;;;;;21.16;58.51;100233.38;2076088;28;19944;-40
2021/10/01 03:53:40;;;;;;;;;;;;;;;21.16;58.75;100230.63;2071211;28;20323;-40
2021/10/01 03:54:43;;;;;;;;;;;;;;;21.17;58.65;100232.38;2074948;28;19913;-40
2021/10/01 03:55:43;;;;;;;;;;;;;;;21.16;58.50;100223.25;2072108;28;20290;-41
2021/10/01 03:56:44;;;;;;;;;;;;;;;21.16;58.39;100236.97;2065640;28;19917;-40
2021/10/01 03:57:46;;;;;;;;;;;;;;;21.16;58.48;100231.47;2056253;28;19917;-40
2021/10/01 03:58:47;;;;;;;;;;;;;;;21.16;58.53;100230.63;2058849;28;19921;-40
2021/10/01 03:59:47;;;;;;;;;;;;;;;21.16;58.46;100233.38;2068729;28;19921;-40
2021/10/01 04:00:48;;;;;;;;;;;;;;;21.16;58.75;100228.72;2071655;28;19943;-40
2021/10/01 04:01:48;;;;;;;;;;;;;;;21.15;58.65;100227.03;2071000;28;19917;-40
2021/10/01 04:02:48;;;;;;;;;;;;;;;21.15;58.48;100229.78;2071937;28;19979;-41
2021/10/01 04:03:49;;;;;;;;;;;;;;;21.15;58.67;100229.78;2072296;28;20335;-40
2021/10/01 04:04:49;;;;;;;;;;;;;;;21.15;58.55;100229.78;2072601;28;20490;-40
2021/10/01 04:05:49;;;;;;;;;;;;;;;21.15;58.54;100224.28;2073775;28;20407;-40
2021/10/01 04:06:50;;;;;;;;;;;;;;;21.15;58.50;100227.03;2074548;28;19924;-40
2021/10/01 04:07:50;;;;;;;;;;;;;;;21.16;58.50;100230.63;2075625;28;19927;-40
2021/10/01 04:08:51;;;;;;;;;;;;;;;21.16;58.58;100233.38;2070359;28;20279;-40
2021/10/01 04:09:51;;;;;;;;;;;;;;;21.15;58.59;100227.03;2069679;28;19925;-40
2021/10/01 04:10:51;;;;;;;;;;;;;;;21.15;58.64;100231.66;2071690;28;20340;-40
2021/10/01 04:11:53;;;;;;;;;;;;;;;21.15;58.64;100226.16;2066679;28;19939;-40
2021/10/01 04:12:54;;;;;;;;;;;;;;;21.15;58.64;100228.91;2076258;28;20749;-40
2021/10/01 04:13:54;;;;;;;;;;;;;;;21.15;58.54;100228.91;2073508;28;20349;-41
2021/10/01 04:14:54;;;;;;;;;;;;;;;21.15;58.47;100224.28;2076008;28;19913;-40
2021/10/01 04:15:55;;;;;;;;;;;;;;;21.14;58.39;100228.06;2075116;28;19917;-40
2021/10/01 04:16:55;;;;;;;;;;;;;;;21.14;58.57;100228.06;2072912;28;20584;-41
2021/10/01 04:17:56;;;;;;;;;;;;;;;21.15;58.50;100228.91;2074489;28;19956;-40
2021/10/01 04:18:56;;;;;;;;;;;;;;;21.15;58.42;100229.78;2078130;28;19909;-40
2021/10/01 04:19:57;;;;;;;;;;;;;;;21.14;58.50;100228.06;2075083;28;19916;-41
2021/10/01 04:20:58;;;;;;;;;;;;;;;21.15;58.32;100231.66;2074941;28;19962;-40
2021/10/01 04:21:58;;;;;;;;;;;;;;;21.13;58.57;100223.59;2077454;28;20261;-40
2021/10/01 04:22:58;;;;;;;;;;;;;;;21.14;58.65;100229.91;2071398;28;19917;-41
2021/10/01 04:23:58;;;;;;;;;;;;;;;21.14;58.42;100227.16;2076865;28;19919;-40
2021/10/01 04:24:59;;;;;;;;;;;;;;;21.14;58.56;100229.91;2075683;28;19917;-40
2021/10/01 04:25:59;;;;;;;;;;;;;;;21.14;58.53;100227.16;2074703;28;19939;-40
2021/10/01 04:27:00;;;;;;;;;;;;;;;21.13;58.67;100223.59;2073455;28;19917;-40
2021/10/01 04:28:00;;;;;;;;;;;;;;;21.14;58.39;100229.91;2070999;28;19939;-40
2021/10/01 04:29:00;;;;;;;;;;;;;;;21.13;58.41;100226.31;2075365;28;19925;-41
2021/10/01 04:30:01;;;;;;;;;;;;;;;21.13;58.53;100233.69;2076562;28;20078;-41
2021/10/01 04:31:01;;;;;;;;;;;;;;;21.14;58.55;100232.66;2075400;28;19924;-41
2021/10/01 04:32:04;;;;;;;;;;;;;;;21.13;58.56;100231.81;2076221;28;20688;-40
2021/10/01 04:33:13;;;;;;;;;;;;;;;21.13;58.60;100231.81;2073044;28;20220;-40
2021/10/01 04:34:14;;;;;;;;;;;;;;;21.12;58.71;100221.88;2076240;28;19945;-41
2021/10/01 04:35:14;;;;;;;;;;;;;;;21.13;58.75;100219.97;2077376;28;20256;-41
2021/10/01 04:36:14;;;;;;;;;;;;;;;21.13;58.56;100228.22;2074857;28;19908;-41
2021/10/01 04:37:15;;;;;;;;;;;;;;;21.12;58.52;100223.75;2076922;28;19959;-40
2021/10/01 04:38:16;;;;;;;;;;;;;;;21.12;58.48;100219.13;2073432;28;19971;-40
2021/10/01 04:39:16;;;;;;;;;;;;;;;21.12;58.63;100226.50;2078037;28;20019;-40
2021/10/01 04:40:16;;;;;;;;;;;;;;;21.13;58.43;100225.47;2073591;28;20023;-40
2021/10/01 04:41:17;;;;;;;;;;;;;;;21.12;58.59;100218.28;2076442;28;20342;-40
2021/10/01 04:42:17;;;;;;;;;;;;;;;21.12;58.52;100219.13;2076617;28;19983;-41
2021/10/01 04:43:18;;;;;;;;;;;;;;;21.12;58.69;100219.13;2073716;28;20327;-40
2021/10/01 04:44:18;;;;;;;;;;;;;;;21.12;58.37;100212.78;2077382;28;19935;-40
2021/10/01 04:45:19;;;;;;;;;;;;;;;21.12;58.60;100221.03;2074245;28;20087;-40
2021/10/01 04:46:20;;;;;;;;;;;;;;;21.12;58.63;100215.53;2069962;28;19916;-40
2021/10/01 04:47:20;;;;;;;;;;;;;;;21.12;58.49;100218.28;2075202;28;20372;-41
2021/10/01 04:48:21;;;;;;;;;;;;;;;21.11;58.52;100213.78;2076722;28;19920;-40
2021/10/01 04:49:21;;;;;;;;;;;;;;;21.11;58.50;100217.41;2070513;28;19964;-40
2021/10/01 04:50:21;;;;;;;;;;;;;;;21.12;58.55;100215.53;2073666;28;19905;-40
2021/10/01 04:51:22;;;;;;;;;;;;;;;21.11;58.39;100208.31;2072328;28;20338;-41
2021/10/01 04:52:22;;;;;;;;;;;;;;;21.12;58.34;100218.28;2072957;28;19916;-40
2021/10/01 04:53:22;;;;;;;;;;;;;;;21.10;58.49;100209.34;2077688;28;20412;-40
2021/10/01 04:54:23;;;;;;;;;;;;;;;21.10;58.61;100204.72;2069911;28;20156;-41
2021/10/01 04:55:23;;;;;;;;;;;;;;;21.12;58.40;100210.06;2071917;28;20031;-40
2021/10/01 04:56:24;;;;;;;;;;;;;;;21.10;58.55;100203.88;2069778;28;19956;-41
2021/10/01 04:57:24;;;;;;;;;;;;;;;21.10;58.55;100207.47;2073823;28;20231;-40
2021/10/01 04:58:24;;;;;;;;;;;;;;;21.11;58.45;100213.78;2079511;28;19917;-40
2021/10/01 04:59:25;;;;;;;;;;;;;;;21.10;58.67;100201.13;2068777;28;19917;-41
2021/10/01 05:00:25;;;;;;;;;;;;;;;21.10;58.39;100203.88;2073266;28;19920;-41
2021/10/01 05:01:26;;;;;;;;;;;;;;;21.10;58.52;100214.84;2076954;28;19940;-41
2021/10/01 05:02:27;;;;;;;;;;;;;;;21.09;58.46;100207.63;2075843;28;19927;-40
2021/10/01 05:03:28;;;;;;;;;;;;;;;21.10;58.48;100214.84;2077127;28;19944;-40
2021/10/01 05:04:28;;;;;;;;;;;;;;;21.09;58.53;100213.09;2068190;28;19920;-40
2021/10/01 05:05:29;;;;;;;;;;;;;;;21.09;58.39;100213.09;2073669;28;19921;-40
2021/10/01 05:06:29;;;;;;;;;;;;;;;21.09;58.43;100207.63;2071812;28;19913;-41
2021/10/01 05:07:29;;;;;;;;;;;;;;;21.10;58.33;100220.31;2076011;28;19971;-41
2021/10/01 05:08:30;;;;;;;;;;;;;;;21.09;58.57;100227.69;2075470;28;19927;-40
2021/10/01 05:09:30;;;;;;;;;;;;;;;21.08;58.61;100212.25;2068493;28;20339;-40
2021/10/01 05:10:30;;;;;;;;;;;;;;;21.09;58.48;100218.56;2067625;28;20037;-40
2021/10/01 05:11:31;;;;;;;;;;;;;;;21.09;58.54;100208.50;2074665;28;20267;-42
2021/10/01 05:12:31;;;;;;;;;;;;;;;21.09;58.30;100211.25;2076609;28;19951;-40
2021/10/01 05:13:31;;;;;;;;;;;;;;;21.09;58.53;100207.63;2075051;28;19928;-40
2021/10/01 05:14:31;;;;;;;;;;;;;;;21.09;58.65;100207.63;2075110;28;20141;-40
2021/10/01 05:15:33;;;;;;;;;;;;;;;21.09;58.40;100204.88;2074470;28;20256;-40
2021/10/01 05:16:34;;;;;;;;;;;;;;;21.08;58.49;100198.53;2072516;28;19917;-41
2021/10/01 05:17:35;;;;;;;;;;;;;;;21.08;58.42;100208.66;2075916;28;19924;-40
2021/10/01 05:18:36;;;;;;;;;;;;;;;21.09;58.51;100207.63;2068589;28;19917;-40